createdAt,value
2023-05-07T00:37:14.710Z,8.40
2023-05-07T00:39:41.483Z,8.40
2023-05-07T00:42:09.150Z,8.40
2023-05-07T00:44:36.039Z,8.40
2023-05-07T00:47:04.591Z,8.40
2023-05-07T00:49:49.778Z,8.40
2023-05-07T00:52:17.669Z,8.40
2023-05-07T00:54:44.639Z,8.40
2023-05-07T00:57:12.441Z,8.40
2023-05-07T00:59:39.414Z,8.40
2023-05-07T01:02:06.229Z,8.40
2023-05-07T01:04:33.247Z,8.40
2023-05-07T01:07:00.868Z,8.30
2023-05-07T01:09:29.088Z,8.30
2023-05-07T01:11:56.400Z,8.30
2023-05-07T01:14:23.402Z,8.30
2023-05-07T01:16:52.194Z,8.30
2023-05-07T01:19:19.528Z,8.30
2023-05-07T01:21:47.415Z,8.30
2023-05-07T01:24:14.509Z,8.30
2023-05-07T01:26:41.731Z,8.30
2023-05-07T01:29:08.706Z,8.40
2023-05-07T01:31:35.889Z,8.30
2023-05-07T01:34:03.227Z,8.30
2023-05-07T01:36:31.272Z,8.30
2023-05-07T01:38:59.118Z,8.30
2023-05-07T01:41:25.999Z,8.30
2023-05-07T01:43:53.488Z,8.30
2023-05-07T01:46:20.588Z,8.40
2023-05-07T01:48:47.617Z,8.30
2023-05-07T01:51:14.491Z,8.40
2023-05-07T01:53:45.244Z,8.40
2023-05-07T01:56:13.168Z,8.40
2023-05-07T01:58:40.446Z,8.40
2023-05-07T02:01:07.457Z,8.40
2023-05-07T02:03:34.652Z,8.40
2023-05-07T02:06:02.687Z,8.40
2023-05-07T02:08:31.188Z,8.40
2023-05-07T02:10:59.581Z,8.40
2023-05-07T02:13:28.021Z,8.40
2023-05-07T02:15:56.819Z,8.40
2023-05-07T09:06:23.284Z,9.20
2023-05-07T09:09:02.124Z,9.20
2023-05-07T09:11:28.880Z,9.20
2023-05-07T09:13:57.151Z,9.20
2023-05-07T09:16:24.920Z,9.30
2023-05-07T09:18:55.718Z,9.40
2023-05-07T09:21:23.876Z,9.40
2023-05-07T09:23:54.792Z,9.60
2023-05-07T09:26:25.644Z,9.70
2023-05-07T09:28:52.978Z,9.80
2023-05-07T09:31:21.646Z,9.90
2023-05-07T09:33:48.693Z,9.90
2023-05-07T09:36:15.578Z,9.80
2023-05-07T09:38:42.817Z,9.80
2023-05-07T09:41:11.088Z,9.90
2023-05-07T09:43:38.723Z,9.80
2023-05-07T09:46:09.490Z,9.80
2023-05-07T09:48:38.292Z,9.80
2023-05-07T09:51:07.571Z,9.70
2023-05-07T09:53:34.727Z,9.70
2023-05-07T09:56:04.477Z,9.60
2023-05-07T09:58:33.435Z,9.60
2023-05-07T10:01:01.073Z,9.60
2023-05-07T10:03:29.703Z,9.60
2023-05-07T10:05:57.433Z,9.50
2023-05-07T10:08:24.363Z,9.40
2023-05-07T10:10:51.348Z,9.40
2023-05-07T10:13:19.997Z,9.50
2023-05-07T10:15:47.461Z,9.50
2023-05-07T10:18:14.828Z,9.50
2023-05-07T10:20:43.015Z,9.40
2023-05-07T10:23:13.988Z,9.40
2023-05-07T10:25:42.289Z,9.30
2023-05-07T10:28:11.034Z,9.40
2023-05-07T10:30:38.502Z,9.40
2023-05-07T10:33:07.286Z,9.50
2023-05-07T10:35:39.832Z,9.50
2023-05-07T19:11:13.551Z,9.10
2023-05-07T19:13:40.854Z,9.00
2023-05-07T19:16:11.805Z,9.00
2023-05-07T19:18:39.282Z,9.00
2023-05-07T19:21:07.086Z,9.00
2023-05-07T19:23:34.717Z,9.00
2023-05-07T19:26:03.388Z,9.00
2023-05-07T19:28:31.063Z,9.00
2023-05-07T19:30:58.309Z,9.00
2023-05-07T19:33:25.312Z,9.00
2023-05-07T19:38:27.941Z,9.00
2023-05-07T19:43:36.370Z,9.00
2023-05-07T19:46:03.174Z,9.10
2023-05-07T19:48:30.387Z,9.00
2023-05-07T19:50:59.402Z,9.00
2023-05-07T19:53:26.373Z,9.00
2023-05-07T19:56:05.933Z,9.00
2023-05-07T19:58:33.063Z,9.00
2023-05-07T20:07:08.130Z,8.90
2023-05-07T20:09:35.024Z,8.90
2023-05-07T20:12:01.899Z,8.90
2023-05-07T20:14:28.772Z,8.90
2023-05-07T20:16:55.648Z,8.90
2023-05-07T20:19:22.527Z,8.80
2023-05-07T20:21:49.298Z,8.90
2023-05-07T20:24:18.969Z,8.90
2023-05-07T20:26:46.519Z,8.90
2023-05-07T20:32:02.427Z,8.80
2023-05-07T20:34:29.630Z,8.90
2023-05-07T20:39:38.345Z,8.80
2023-05-07T20:42:05.356Z,8.90
2023-05-07T20:44:35.924Z,8.80
2023-05-07T20:47:03.637Z,8.90
2023-05-07T20:52:10.068Z,8.80
2023-05-07T20:54:40.382Z,8.80
2023-05-07T20:57:07.554Z,8.80
2023-05-07T20:59:35.286Z,8.80
2023-05-07T21:02:03.007Z,8.80
2023-05-07T21:04:30.593Z,8.80
2023-05-07T21:06:57.405Z,8.80
2023-05-07T21:09:24.404Z,8.80
2023-05-07T21:11:51.181Z,8.90
2023-05-07T21:14:18.042Z,8.90
2023-05-07T21:16:45.486Z,8.90
2023-05-07T21:19:12.591Z,8.80
2023-05-07T21:21:39.443Z,8.90
2023-05-07T21:24:06.624Z,8.80
2023-05-07T21:26:33.509Z,8.90
2023-05-07T21:29:00.353Z,8.90
2023-05-07T21:31:27.180Z,8.80
2023-05-07T21:33:54.251Z,8.80
2023-05-07T21:36:23.821Z,8.80
2023-05-07T21:38:53.322Z,8.80
2023-05-07T21:41:20.980Z,8.80
2023-05-07T21:43:47.850Z,8.80
2023-05-07T21:46:14.822Z,8.80
2023-05-07T21:48:41.650Z,8.80
2023-05-07T21:51:08.554Z,8.80
2023-05-07T21:53:35.727Z,8.80
2023-05-07T21:56:03.120Z,8.80
2023-05-07T21:58:31.158Z,8.80
2023-05-07T22:00:58.339Z,8.70
2023-05-07T22:03:25.266Z,8.80
2023-05-07T22:05:52.100Z,8.80
2023-05-07T22:08:18.862Z,8.80
2023-05-07T22:10:46.359Z,8.80
2023-05-07T22:13:13.134Z,8.70
2023-05-07T22:15:53.240Z,8.80
2023-05-07T22:18:23.261Z,8.70
2023-05-07T22:20:53.008Z,8.70
2023-05-07T22:23:19.872Z,8.70
2023-05-07T22:25:46.656Z,8.70
2023-05-07T22:28:13.418Z,8.70
2023-05-07T22:30:40.254Z,8.70
2023-05-07T22:33:07.076Z,8.70
2023-05-07T22:35:33.994Z,8.70
2023-05-07T22:38:00.776Z,8.60
2023-05-07T22:40:27.692Z,8.70
2023-05-07T22:42:54.483Z,8.60
2023-05-07T22:45:21.493Z,8.70
2023-05-07T22:47:48.517Z,8.70
2023-05-07T22:50:15.682Z,8.70
2023-05-07T22:52:42.450Z,8.60
2023-05-07T22:55:09.430Z,8.60
2023-05-07T22:57:36.204Z,8.60
2023-05-07T23:00:03.424Z,8.70
2023-05-07T23:02:30.294Z,8.60
2023-05-07T23:04:58.678Z,8.60
2023-05-07T23:07:26.022Z,8.60
2023-05-07T23:09:52.798Z,8.60
2023-05-07T23:12:19.619Z,8.60
2023-05-07T23:14:46.436Z,8.60
2023-05-07T23:17:13.299Z,8.60
2023-05-07T23:19:40.156Z,8.60
2023-05-07T23:22:06.974Z,8.60
2023-05-07T23:24:34.988Z,8.60
2023-05-07T23:27:05.602Z,8.60
2023-05-07T23:29:32.786Z,8.60
2023-05-07T23:31:59.707Z,8.60
2023-05-07T23:34:26.953Z,8.60
2023-05-07T23:36:54.075Z,8.60
2023-05-07T23:39:21.036Z,8.60
2023-05-07T23:41:47.892Z,8.60
2023-05-07T23:44:16.635Z,8.60
2023-05-07T23:46:44.544Z,8.60
2023-05-07T23:49:11.494Z,8.70
2023-05-07T23:51:38.277Z,8.60
2023-05-07T23:54:05.256Z,8.60
2023-05-07T23:56:32.112Z,8.70
2023-05-07T23:58:59.550Z,8.70
